createdAt,value
2022-09-30T00:01:05.786Z,10.93
2022-09-30T00:03:32.573Z,11.47
2022-09-30T00:06:08.448Z,11.27
2022-09-30T00:08:39.841Z,11.83
2022-09-30T00:11:13.922Z,11.33
2022-09-30T00:13:41.069Z,11.37
2022-09-30T00:16:10.001Z,11.77
2022-09-30T00:18:37.943Z,10.67
2022-09-30T00:21:05.556Z,12.23
2022-09-30T00:23:32.930Z,12.57
2022-09-30T00:26:01.948Z,13.03
2022-09-30T00:28:29.867Z,12.03
2022-09-30T00:31:01.747Z,12.40
2022-09-30T00:33:28.921Z,12.60
2022-09-30T00:35:55.571Z,14.90
2022-09-30T00:38:22.245Z,13.23
2022-09-30T00:40:49.654Z,14.07
2022-09-30T00:43:21.970Z,14.40
2022-09-30T00:45:57.874Z,16.27
2022-09-30T00:48:33.741Z,45.13
2022-09-30T00:51:02.863Z,18.90
2022-09-30T00:53:41.700Z,15.17
2022-09-30T00:56:17.062Z,13.40
2022-09-30T00:58:53.054Z,11.50
2022-09-30T01:01:20.901Z,13.00
2022-09-30T01:03:52.289Z,15.10
2022-09-30T01:06:22.412Z,15.57
2022-09-30T01:08:49.479Z,14.40
2022-09-30T01:11:17.098Z,13.27
2022-09-30T01:13:47.652Z,13.30
2022-09-30T01:16:45.248Z,14.47
2022-09-30T01:19:36.230Z,14.00
2022-09-30T01:22:27.431Z,13.67
2022-09-30T01:25:23.815Z,17.53
2022-09-30T01:28:18.778Z,17.90
2022-09-30T01:31:33.860Z,16.03
2022-09-30T01:34:26.425Z,15.20
2022-09-30T01:37:13.889Z,16.20
2022-09-30T01:39:59.264Z,15.90
2022-09-30T01:42:33.854Z,15.67
2022-09-30T01:45:22.421Z,16.00
2022-09-30T01:47:56.817Z,15.47
2022-09-30T01:50:36.319Z,15.83
2022-09-30T01:53:16.194Z,15.73
2022-09-30T01:55:53.091Z,16.57
2022-09-30T01:58:33.170Z,30.20
2022-09-30T02:01:06.498Z,21.47
2022-09-30T02:03:49.001Z,18.20
2022-09-30T02:06:20.641Z,16.07
2022-09-30T02:09:03.328Z,15.67
2022-09-30T02:11:36.193Z,15.20
2022-09-30T02:14:08.998Z,14.53
2022-09-30T02:16:42.050Z,14.57
2022-09-30T02:19:18.233Z,15.30
2022-09-30T02:21:52.930Z,14.93
2022-09-30T02:24:23.903Z,16.27
2022-09-30T02:26:54.866Z,15.83
2022-09-30T02:29:28.423Z,16.17
2022-09-30T02:31:59.654Z,16.20
2022-09-30T02:34:36.163Z,16.30
2022-09-30T02:37:10.106Z,16.37
2022-09-30T02:40:06.163Z,16.17
2022-09-30T02:42:33.478Z,16.53
2022-09-30T02:45:08.807Z,15.67
2022-09-30T02:48:13.635Z,15.40
2022-09-30T02:50:51.894Z,14.63
2022-09-30T02:53:36.451Z,15.17
2022-09-30T02:56:29.305Z,15.37
2022-09-30T02:58:57.680Z,15.93
2022-09-30T03:01:25.310Z,15.00
2022-09-30T03:03:57.652Z,15.80
2022-09-30T03:06:25.257Z,15.73
2022-09-30T03:08:53.245Z,16.07
2022-09-30T03:11:24.246Z,15.90
2022-09-30T03:14:16.358Z,16.30
2022-09-30T03:17:10.316Z,15.77
2022-09-30T03:20:12.004Z,17.57
2022-09-30T03:22:57.971Z,18.33
2022-09-30T03:25:40.474Z,19.23
2022-09-30T03:28:35.387Z,18.20
2022-09-30T03:32:00.522Z,17.80
2022-09-30T03:34:44.382Z,17.03
2022-09-30T03:37:30.229Z,16.97
2022-09-30T03:39:59.612Z,17.90
2022-09-30T03:42:41.922Z,17.83
2022-09-30T03:45:20.195Z,18.87
2022-09-30T03:47:53.736Z,18.43
2022-09-30T03:50:24.643Z,16.87
2022-09-30T03:52:52.351Z,18.00
2022-09-30T03:55:20.018Z,16.57
2022-09-30T03:57:46.676Z,17.27
2022-09-30T04:00:13.944Z,17.83
2022-09-30T04:02:40.800Z,17.53
2022-09-30T04:05:08.701Z,16.50
2022-09-30T04:07:35.541Z,16.13
2022-09-30T04:10:02.458Z,15.93
2022-09-30T04:12:29.094Z,16.33
2022-09-30T04:14:55.798Z,17.37
2022-09-30T04:17:23.123Z,17.03
2022-09-30T04:19:50.277Z,16.23
2022-09-30T04:22:16.956Z,16.57
2022-09-30T04:24:43.978Z,16.43
2022-09-30T04:27:10.845Z,16.30
2022-09-30T04:29:37.554Z,16.83
2022-09-30T04:32:04.691Z,17.03
2022-09-30T04:34:31.539Z,15.30
2022-09-30T04:36:58.276Z,14.93
2022-09-30T04:39:26.259Z,15.70
2022-09-30T04:41:54.047Z,18.20
2022-09-30T04:44:21.536Z,16.40
2022-09-30T04:46:48.270Z,15.77
2022-09-30T04:49:15.011Z,15.67
2022-09-30T04:51:46.072Z,16.90
2022-09-30T04:54:13.534Z,19.47
2022-09-30T04:56:40.337Z,21.20
2022-09-30T04:59:07.365Z,18.33
2022-09-30T05:01:34.649Z,18.13
2022-09-30T05:04:01.886Z,17.97
2022-09-30T05:06:28.811Z,18.17
2022-09-30T05:08:55.633Z,19.70
2022-09-30T05:11:22.886Z,20.17
2022-09-30T05:13:51.118Z,20.70
2022-09-30T05:16:18.534Z,21.73
2022-09-30T05:18:46.183Z,19.70
2022-09-30T05:21:18.198Z,19.07
2022-09-30T05:23:45.221Z,19.60
2022-09-30T05:26:12.981Z,18.90
2022-09-30T05:28:41.929Z,20.57
2022-09-30T05:31:09.270Z,18.80
2022-09-30T05:33:36.316Z,18.87
2022-09-30T05:36:06.316Z,18.53
2022-09-30T05:38:34.333Z,18.27
2022-09-30T05:41:12.690Z,19.97
2022-09-30T05:43:41.271Z,21.73
2022-09-30T05:46:08.342Z,18.67
2022-09-30T05:48:35.099Z,18.87
2022-09-30T05:51:02.373Z,19.77
2022-09-30T05:53:32.191Z,19.77
2022-09-30T05:55:59.625Z,22.50
2022-09-30T05:58:27.849Z,20.40
2022-09-30T06:00:55.287Z,22.27
2022-09-30T06:03:22.114Z,19.33
2022-09-30T06:05:49.154Z,21.37
2022-09-30T06:08:16.032Z,20.17
2022-09-30T06:10:44.405Z,19.20
2022-09-30T06:13:11.601Z,19.00
2022-09-30T06:15:39.757Z,18.93
2022-09-30T06:18:08.001Z,19.07
2022-09-30T06:20:34.941Z,18.33
2022-09-30T06:23:02.066Z,18.80
2022-09-30T06:25:30.619Z,18.93
2022-09-30T06:27:58.293Z,19.53
2022-09-30T06:30:25.259Z,18.37
2022-09-30T06:32:52.141Z,19.10
2022-09-30T06:35:20.563Z,17.53
2022-09-30T06:37:51.477Z,17.37
2022-09-30T06:40:18.516Z,18.73
2022-09-30T06:42:45.227Z,17.03
2022-09-30T06:45:23.409Z,17.47
2022-09-30T06:48:01.316Z,17.87
2022-09-30T06:50:29.515Z,18.10
2022-09-30T06:53:01.122Z,17.73
2022-09-30T06:55:29.381Z,18.30
2022-09-30T06:57:57.402Z,18.73
2022-09-30T07:00:26.218Z,17.07
2022-09-30T07:02:56.761Z,17.83
2022-09-30T07:05:25.770Z,16.67
2022-09-30T07:07:53.347Z,17.47
2022-09-30T07:10:21.067Z,17.87
2022-09-30T07:12:51.679Z,16.30
2022-09-30T07:15:23.309Z,15.87
2022-09-30T07:18:00.691Z,16.43
2022-09-30T07:20:27.462Z,15.47
2022-09-30T07:22:54.220Z,15.70
2022-09-30T07:25:20.919Z,16.00
2022-09-30T07:27:48.028Z,16.20
2022-09-30T07:30:24.549Z,14.27
2022-09-30T07:32:53.558Z,16.33
2022-09-30T07:35:20.801Z,14.27
2022-09-30T07:37:47.743Z,13.90
2022-09-30T07:40:15.308Z,12.90
2022-09-30T07:42:45.831Z,12.40
2022-09-30T07:45:17.080Z,12.07
2022-09-30T07:47:43.973Z,13.67
2022-09-30T07:50:12.489Z,12.47
2022-09-30T07:52:39.385Z,9.67
2022-09-30T07:55:06.795Z,9.97
2022-09-30T07:57:33.506Z,10.10
2022-09-30T08:00:08.144Z,10.20
2022-09-30T08:02:46.949Z,11.03
2022-09-30T08:05:13.927Z,10.80
2022-09-30T08:07:40.680Z,11.13
2022-09-30T08:10:07.823Z,10.63
2022-09-30T08:12:35.360Z,9.57
2022-09-30T08:15:02.244Z,10.03
2022-09-30T08:17:29.205Z,9.35
2022-09-30T08:19:55.889Z,10.23
2022-09-30T08:22:23.905Z,9.77
2022-09-30T08:24:50.647Z,9.27
2022-09-30T08:27:17.382Z,8.50
2022-09-30T08:30:04.288Z,8.73
2022-09-30T08:32:31.539Z,8.70
2022-09-30T08:34:58.460Z,8.70
2022-09-30T08:37:25.162Z,8.60
2022-09-30T08:39:51.859Z,8.63
2022-09-30T08:42:37.178Z,8.02
2022-09-30T08:45:38.049Z,8.10
2022-09-30T08:48:50.765Z,6.25
2022-09-30T08:51:39.035Z,5.35
2022-09-30T08:54:13.513Z,6.20
2022-09-30T08:56:40.166Z,6.33
2022-09-30T08:59:27.079Z,6.70
2022-09-30T09:02:02.399Z,6.57
2022-09-30T09:04:29.487Z,7.05
2022-09-30T09:07:06.221Z,7.38
2022-09-30T09:10:06.381Z,6.57
2022-09-30T09:12:49.866Z,6.88
2022-09-30T09:15:42.719Z,6.40
2022-09-30T09:18:28.334Z,5.90
2022-09-30T09:21:03.397Z,6.10
2022-09-30T09:23:33.510Z,6.13
2022-09-30T09:26:00.491Z,6.63
2022-09-30T09:28:37.100Z,6.43
2022-09-30T09:31:05.131Z,6.07
2022-09-30T09:33:39.885Z,5.55
2022-09-30T09:36:12.966Z,6.45
2022-09-30T09:39:07.639Z,5.90
2022-09-30T09:41:52.607Z,5.00
2022-09-30T09:44:21.982Z,3.97
2022-09-30T09:46:55.477Z,4.18
2022-09-30T09:49:24.217Z,4.55
2022-09-30T09:52:13.161Z,4.97
2022-09-30T09:54:45.343Z,5.07
2022-09-30T09:57:15.789Z,4.75
2022-09-30T10:00:21.815Z,4.93
2022-09-30T10:03:18.527Z,4.65
2022-09-30T10:05:47.747Z,5.30
2022-09-30T10:08:21.404Z,5.35
2022-09-30T10:10:53.809Z,3.90
2022-09-30T10:13:26.487Z,4.35
2022-09-30T10:15:56.216Z,4.35
2022-09-30T10:18:28.046Z,4.20
2022-09-30T10:21:00.793Z,3.60
2022-09-30T10:23:38.039Z,3.38
2022-09-30T10:26:04.872Z,3.20
2022-09-30T10:28:44.454Z,2.63
2022-09-30T10:31:23.322Z,2.33
2022-09-30T10:34:12.010Z,2.80
2022-09-30T10:36:43.454Z,2.67
2022-09-30T10:39:34.624Z,2.92
2022-09-30T10:42:08.484Z,2.47
2022-09-30T10:44:44.430Z,2.03
2022-09-30T10:47:15.474Z,1.98
2022-09-30T10:49:57.060Z,2.08
2022-09-30T10:52:27.519Z,1.88
2022-09-30T10:55:00.365Z,2.22
2022-09-30T10:57:32.496Z,1.98
2022-09-30T11:00:05.741Z,1.90
2022-09-30T11:02:39.429Z,2.20
2022-09-30T11:05:20.342Z,2.15
2022-09-30T11:07:50.062Z,2.20
2022-09-30T11:10:42.222Z,2.10
2022-09-30T11:13:19.002Z,2.08
2022-09-30T11:16:11.065Z,2.38
2022-09-30T11:18:40.559Z,2.13
2022-09-30T11:21:37.555Z,2.38
2022-09-30T11:24:19.611Z,2.50
2022-09-30T11:27:15.296Z,2.33
2022-09-30T11:30:12.340Z,2.30
2022-09-30T11:32:52.361Z,3.28
2022-09-30T11:35:19.040Z,2.30
2022-09-30T11:37:57.664Z,2.45
2022-09-30T11:41:02.918Z,2.85
2022-09-30T11:43:29.858Z,2.42
2022-09-30T11:46:21.274Z,2.70
2022-09-30T11:48:57.143Z,3.10
2022-09-30T11:51:47.925Z,3.00
2022-09-30T11:54:43.760Z,2.45
2022-09-30T11:57:37.698Z,2.10
2022-09-30T12:00:19.162Z,2.03
2022-09-30T12:02:56.856Z,2.20
2022-09-30T12:05:34.871Z,2.38
2022-09-30T12:08:28.828Z,2.53
2022-09-30T12:11:12.583Z,2.70
2022-09-30T12:13:56.512Z,2.83
2022-09-30T12:16:30.670Z,2.33
2022-09-30T12:19:01.516Z,2.67
2022-09-30T12:21:40.437Z,2.72
2022-09-30T12:24:11.599Z,2.47
2022-09-30T12:26:41.181Z,2.30
2022-09-30T12:29:35.618Z,2.10
2022-09-30T12:32:23.400Z,2.75
2022-09-30T12:34:56.774Z,2.85
2022-09-30T12:37:58.513Z,2.60
2022-09-30T12:40:40.174Z,2.90
2022-09-30T12:43:06.835Z,2.70
2022-09-30T12:46:13.531Z,3.13
2022-09-30T12:49:01.503Z,2.90
2022-09-30T12:51:32.936Z,3.10
2022-09-30T12:54:07.416Z,2.60
2022-09-30T12:56:35.062Z,3.35
2022-09-30T12:59:03.776Z,2.70
2022-09-30T13:01:35.551Z,3.00
2022-09-30T13:04:02.260Z,2.80
2022-09-30T13:06:47.112Z,2.80
2022-09-30T13:09:16.914Z,2.95
2022-09-30T13:11:45.848Z,2.83
2022-09-30T13:14:20.251Z,2.83
2022-09-30T13:17:03.112Z,2.75
2022-09-30T13:19:40.413Z,2.83
2022-09-30T13:22:24.584Z,2.92
2022-09-30T13:24:57.779Z,2.88
2022-09-30T13:27:34.816Z,2.40
2022-09-30T13:30:03.130Z,2.20
2022-09-30T13:32:37.852Z,2.35
2022-09-30T13:35:30.558Z,2.45
2022-09-30T13:38:15.643Z,2.40
2022-09-30T13:41:04.529Z,1.95
2022-09-30T13:43:36.595Z,2.67
2022-09-30T13:46:14.910Z,2.42
2022-09-30T13:48:49.337Z,3.38
2022-09-30T13:51:18.800Z,2.70
2022-09-30T13:53:55.810Z,2.60
2022-09-30T13:56:26.624Z,3.13
2022-09-30T13:59:31.850Z,2.63
2022-09-30T14:02:13.701Z,3.00
2022-09-30T14:04:50.168Z,2.03
2022-09-30T14:07:37.724Z,3.03
2022-09-30T14:10:16.868Z,2.65
2022-09-30T14:12:50.052Z,2.83
2022-09-30T14:15:47.389Z,4.13
2022-09-30T14:18:38.175Z,3.22
2022-09-30T14:21:40.554Z,4.70
2022-09-30T14:24:17.545Z,3.67
2022-09-30T14:26:44.246Z,3.88
2022-09-30T14:29:27.962Z,3.55
2022-09-30T14:31:56.170Z,4.55
2022-09-30T14:34:25.717Z,5.10
2022-09-30T14:36:54.200Z,4.00
2022-09-30T14:39:28.290Z,3.65
2022-09-30T14:41:57.927Z,3.70
2022-09-30T14:44:29.991Z,5.47
2022-09-30T14:47:01.519Z,3.80
2022-09-30T14:49:36.083Z,2.75
2022-09-30T14:52:04.345Z,3.40
2022-09-30T14:54:33.198Z,2.78
2022-09-30T14:57:03.027Z,4.95
2022-09-30T14:59:33.227Z,3.28
2022-09-30T15:02:11.413Z,3.60
2022-09-30T15:04:42.643Z,2.42
2022-09-30T15:07:12.028Z,2.80
2022-09-30T15:09:42.267Z,4.93
2022-09-30T15:12:19.203Z,5.40
2022-09-30T15:14:51.322Z,2.70
2022-09-30T15:17:20.793Z,2.33
2022-09-30T15:19:50.256Z,2.50
2022-09-30T15:22:19.106Z,2.90
2022-09-30T15:24:48.616Z,2.88
2022-09-30T15:27:37.028Z,2.42
2022-09-30T15:30:16.877Z,3.45
2022-09-30T15:32:45.347Z,3.53
2022-09-30T15:35:17.115Z,6.05
2022-09-30T15:37:44.620Z,4.65
2022-09-30T15:40:38.899Z,3.40
2022-09-30T15:43:08.278Z,10.70
2022-09-30T15:45:37.952Z,6.78
2022-09-30T15:48:17.110Z,3.47
2022-09-30T15:50:49.750Z,3.83
2022-09-30T15:53:24.154Z,4.43
2022-09-30T15:55:59.186Z,10.18
2022-09-30T15:58:37.885Z,6.22
2022-09-30T16:01:22.112Z,5.95
2022-09-30T16:04:00.609Z,5.93
2022-09-30T16:06:36.932Z,4.10
2022-09-30T16:09:08.691Z,3.30
2022-09-30T16:11:41.323Z,6.63
2022-09-30T16:14:19.002Z,5.13
2022-09-30T16:16:55.241Z,4.82
2022-09-30T16:19:24.592Z,3.83
2022-09-30T16:21:53.074Z,3.13
2022-09-30T16:24:22.550Z,3.00
2022-09-30T16:26:50.173Z,2.75
2022-09-30T16:29:17.946Z,2.38
2022-09-30T16:31:47.550Z,2.63
2022-09-30T16:34:38.583Z,2.90
2022-09-30T16:37:18.141Z,2.90
2022-09-30T16:39:45.123Z,3.03
2022-09-30T16:42:16.394Z,3.40
2022-09-30T16:44:45.791Z,3.15
2022-09-30T16:47:14.442Z,2.90
2022-09-30T16:49:43.168Z,2.40
2022-09-30T16:52:11.550Z,2.90
2022-09-30T16:54:38.566Z,2.53
2022-09-30T16:57:05.278Z,2.47
2022-09-30T16:59:33.039Z,2.55
2022-09-30T17:02:01.136Z,2.70
2022-09-30T17:04:28.289Z,2.83
2022-09-30T17:06:57.408Z,2.77
2022-09-30T17:09:24.159Z,2.85
2022-09-30T17:11:53.255Z,3.40
2022-09-30T17:14:20.036Z,3.40
2022-09-30T17:16:48.371Z,3.30
2022-09-30T17:19:16.094Z,3.47
2022-09-30T17:21:42.962Z,3.07
2022-09-30T17:24:09.681Z,3.33
2022-09-30T17:26:37.094Z,3.10
2022-09-30T17:29:21.002Z,2.83
2022-09-30T17:31:53.816Z,2.90
2022-09-30T17:34:20.664Z,2.80
2022-09-30T17:36:47.988Z,3.30
2022-09-30T17:39:14.752Z,3.40
2022-09-30T17:41:59.975Z,3.33
2022-09-30T17:44:26.906Z,2.90
2022-09-30T17:47:00.180Z,3.00
2022-09-30T17:49:35.582Z,3.77
2022-09-30T17:52:04.254Z,4.73
2022-09-30T17:54:31.729Z,3.90
2022-09-30T17:56:58.619Z,3.60
2022-09-30T17:59:27.009Z,4.10
2022-09-30T18:01:56.502Z,4.00
2022-09-30T18:04:26.190Z,4.40
2022-09-30T18:06:54.300Z,4.70
2022-09-30T18:09:21.756Z,4.60
2022-09-30T18:11:50.302Z,5.30
2022-09-30T18:14:17.780Z,6.60
2022-09-30T18:16:45.690Z,6.93
2022-09-30T18:21:44.305Z,6.73
2022-09-30T18:24:11.030Z,8.85
2022-09-30T18:26:37.773Z,10.40
2022-09-30T18:29:06.182Z,8.70
2022-09-30T18:31:37.960Z,10.00
2022-09-30T18:34:06.276Z,8.77
2022-09-30T18:36:33.604Z,6.80
2022-09-30T18:39:02.904Z,7.13
2022-09-30T18:41:32.058Z,7.07
2022-09-30T18:44:03.255Z,6.77
2022-09-30T18:46:31.796Z,5.20
2022-09-30T18:48:58.612Z,4.37
2022-09-30T18:51:25.527Z,4.03
2022-09-30T18:53:56.089Z,5.40
2022-09-30T18:56:24.430Z,5.47
2022-09-30T18:58:54.267Z,5.33
2022-09-30T19:01:21.194Z,5.97
2022-09-30T19:03:49.251Z,6.00
2022-09-30T19:06:16.135Z,5.60
2022-09-30T19:08:43.628Z,5.20
2022-09-30T19:11:14.715Z,5.13
2022-09-30T19:13:43.260Z,4.80
2022-09-30T19:16:11.185Z,5.00
2022-09-30T19:18:39.817Z,5.20
2022-09-30T19:21:12.197Z,4.50
2022-09-30T19:23:40.232Z,4.33
2022-09-30T19:26:10.181Z,4.60
2022-09-30T19:28:38.301Z,4.83
2022-09-30T19:31:10.495Z,4.77
2022-09-30T19:33:38.520Z,4.40
2022-09-30T19:36:17.510Z,4.93
2022-09-30T19:38:46.240Z,4.27
2022-09-30T19:41:18.654Z,4.23
2022-09-30T19:43:49.710Z,4.10
2022-09-30T19:46:17.448Z,4.10
2022-09-30T19:48:45.213Z,4.20
2022-09-30T19:51:14.379Z,4.00
2022-09-30T19:53:45.597Z,4.37
2022-09-30T19:56:16.942Z,4.57
2022-09-30T19:58:47.677Z,4.00
2022-09-30T20:01:18.842Z,4.23
2022-09-30T20:03:46.070Z,4.57
2022-09-30T20:06:15.261Z,4.70
2022-09-30T20:08:44.904Z,4.40
2022-09-30T20:11:17.783Z,5.00
2022-09-30T20:13:44.507Z,4.57
2022-09-30T20:16:13.845Z,5.00
2022-09-30T20:18:42.068Z,4.57
2022-09-30T20:21:10.506Z,4.77
2022-09-30T20:23:40.805Z,4.23
2022-09-30T20:26:17.747Z,4.27
2022-09-30T20:28:44.478Z,4.20
2022-09-30T20:31:15.251Z,4.50
2022-09-30T20:33:42.830Z,4.80
2022-09-30T20:36:11.048Z,3.80
2022-09-30T20:38:38.986Z,4.00
2022-09-30T20:41:06.298Z,4.00
2022-09-30T20:43:34.003Z,4.50
2022-09-30T20:46:04.201Z,4.67
2022-09-30T20:48:33.652Z,4.07
2022-09-30T20:51:07.805Z,4.27
2022-09-30T20:53:36.594Z,5.03
2022-09-30T20:56:04.168Z,4.63
2022-09-30T20:58:30.876Z,4.87
2022-09-30T21:01:05.522Z,5.60
2022-09-30T21:03:39.014Z,5.27
2022-09-30T21:06:08.192Z,5.70
2022-09-30T21:08:39.514Z,5.50
2022-09-30T21:11:07.576Z,5.57
2022-09-30T21:13:35.323Z,6.07
2022-09-30T21:16:04.490Z,5.70
2022-09-30T21:18:32.036Z,6.30
2022-09-30T21:21:00.831Z,5.63
2022-09-30T21:23:33.303Z,6.20
2022-09-30T21:26:06.268Z,5.60
2022-09-30T21:28:33.286Z,5.07
2022-09-30T21:31:08.221Z,4.70
2022-09-30T21:33:36.150Z,5.27
2022-09-30T21:36:05.320Z,4.73
2022-09-30T21:38:34.302Z,5.03
2022-09-30T21:41:03.525Z,5.13
2022-09-30T21:43:31.862Z,4.77
2022-09-30T21:46:03.552Z,4.90
2022-09-30T21:48:32.579Z,4.43
2022-09-30T21:51:00.298Z,4.50
2022-09-30T21:53:27.919Z,5.17
2022-09-30T21:55:56.229Z,5.20
2022-09-30T21:58:25.327Z,5.20
2022-09-30T22:00:55.885Z,5.40
2022-09-30T22:03:23.550Z,5.90
2022-09-30T22:05:54.254Z,5.77
2022-09-30T22:08:22.206Z,5.17
2022-09-30T22:10:51.032Z,5.37
2022-09-30T22:13:18.716Z,6.43
2022-09-30T22:15:46.817Z,6.77
2022-09-30T22:18:19.584Z,6.90
2022-09-30T22:20:48.540Z,6.13
2022-09-30T22:23:15.372Z,6.50
2022-09-30T22:25:42.155Z,6.10
2022-09-30T22:28:09.096Z,6.10
2022-09-30T22:30:36.093Z,6.40
2022-09-30T22:33:21.065Z,6.63
2022-09-30T22:36:06.191Z,6.53
2022-09-30T22:38:32.880Z,6.17
2022-09-30T22:40:59.693Z,6.63
2022-09-30T22:43:26.962Z,6.17
2022-09-30T22:46:03.828Z,7.13
2022-09-30T22:48:31.267Z,6.77
2022-09-30T22:50:59.173Z,7.40
2022-09-30T22:53:27.061Z,7.47
2022-09-30T22:55:54.123Z,6.63
2022-09-30T22:58:26.954Z,7.40
2022-09-30T23:00:56.281Z,6.37
2022-09-30T23:03:25.471Z,6.73
2022-09-30T23:05:53.088Z,6.40
2022-09-30T23:08:20.193Z,6.97
2022-09-30T23:10:50.725Z,7.00
2022-09-30T23:13:20.108Z,8.17
2022-09-30T23:15:50.411Z,7.23
2022-09-30T23:18:17.342Z,7.37
2022-09-30T23:20:54.566Z,7.07
2022-09-30T23:23:21.245Z,7.13
2022-09-30T23:25:47.934Z,8.57
2022-09-30T23:28:14.765Z,11.13
2022-09-30T23:30:41.440Z,10.17
2022-09-30T23:33:10.136Z,8.33
2022-09-30T23:35:36.835Z,7.30
2022-09-30T23:38:03.483Z,7.27
2022-09-30T23:40:31.359Z,6.53
2022-09-30T23:42:58.057Z,6.60
2022-09-30T23:45:24.851Z,7.03
2022-09-30T23:47:51.644Z,7.13
2022-09-30T23:50:18.339Z,7.03
2022-09-30T23:52:45.136Z,7.33
2022-09-30T23:55:11.794Z,7.30
2022-09-30T23:57:38.559Z,9.03
